sensor_id;sensor_type;location;lat;lon;timestamp;P1;durP1;ratioP1;P2;durP2;ratioP2
21032;SDS011;10675;47.976;7.824;2023-12-04T00:02:22;3.47;;;2.40;;
21032;SDS011;10675;47.976;7.824;2023-12-04T00:04:48;2.87;;;1.70;;
21032;SDS011;10675;47.976;7.824;2023-12-04T00:07:14;2.83;;;2.27;;
21032;SDS011;10675;47.976;7.824;2023-12-04T00:09:39;2.33;;;1.70;;
21032;SDS011;10675;47.976;7.824;2023-12-04T00:12:05;2.13;;;1.87;;
21032;SDS011;10675;47.976;7.824;2023-12-04T00:14:30;2.13;;;1.70;;
21032;SDS011;10675;47.976;7.824;2023-12-04T00:16:56;1.77;;;1.50;;
21032;SDS011;10675;47.976;7.824;2023-12-04T00:19:21;4.93;;;2.13;;
21032;SDS011;10675;47.976;7.824;2023-12-04T00:21:47;3.57;;;2.63;;
21032;SDS011;10675;47.976;7.824;2023-12-04T00:24:12;4.40;;;2.50;;
21032;SDS011;10675;47.976;7.824;2023-12-04T00:26:38;2.43;;;2.13;;
21032;SDS011;10675;47.976;7.824;2023-12-04T00:29:03;5.77;;;2.97;;
21032;SDS011;10675;47.976;7.824;2023-12-04T00:31:29;3.10;;;2.13;;
21032;SDS011;10675;47.976;7.824;2023-12-04T00:33:56;4.43;;;2.00;;
21032;SDS011;10675;47.976;7.824;2023-12-04T00:36:22;3.90;;;2.43;;
21032;SDS011;10675;47.976;7.824;2023-12-04T00:38:47;2.77;;;2.13;;
21032;SDS011;10675;47.976;7.824;2023-12-04T00:41:13;3.30;;;2.20;;
21032;SDS011;10675;47.976;7.824;2023-12-04T00:43:38;3.57;;;2.20;;
21032;SDS011;10675;47.976;7.824;2023-12-04T00:46:04;3.37;;;2.07;;
21032;SDS011;10675;47.976;7.824;2023-12-04T00:48:30;5.70;;;2.27;;
21032;SDS011;10675;47.976;7.824;2023-12-04T00:50:55;5.03;;;2.20;;
21032;SDS011;10675;47.976;7.824;2023-12-04T00:53:22;4.20;;;1.97;;
21032;SDS011;10675;47.976;7.824;2023-12-04T00:55:47;3.43;;;2.20;;
21032;SDS011;10675;47.976;7.824;2023-12-04T00:58:13;4.60;;;2.10;;
21032;SDS011;10675;47.976;7.824;2023-12-04T01:00:38;4.93;;;2.10;;
21032;SDS011;10675;47.976;7.824;2023-12-04T01:03:04;1.87;;;1.67;;
21032;SDS011;10675;47.976;7.824;2023-12-04T01:05:29;3.57;;;1.90;;
21032;SDS011;10675;47.976;7.824;2023-12-04T01:07:55;3.37;;;2.27;;
21032;SDS011;10675;47.976;7.824;2023-12-04T01:10:20;2.97;;;1.83;;
21032;SDS011;10675;47.976;7.824;2023-12-04T01:12:46;4.63;;;2.17;;
21032;SDS011;10675;47.976;7.824;2023-12-04T01:15:11;5.93;;;2.00;;
21032;SDS011;10675;47.976;7.824;2023-12-04T01:17:37;4.00;;;2.40;;
21032;SDS011;10675;47.976;7.824;2023-12-04T01:20:03;2.87;;;2.13;;
21032;SDS011;10675;47.976;7.824;2023-12-04T01:22:29;2.87;;;2.10;;
21032;SDS011;10675;47.976;7.824;2023-12-04T01:24:55;2.87;;;1.90;;
21032;SDS011;10675;47.976;7.824;2023-12-04T01:27:20;2.40;;;2.03;;
21032;SDS011;10675;47.976;7.824;2023-12-04T01:29:46;3.13;;;1.97;;
21032;SDS011;10675;47.976;7.824;2023-12-04T01:32:12;3.63;;;2.30;;
21032;SDS011;10675;47.976;7.824;2023-12-04T01:34:37;4.00;;;1.90;;
21032;SDS011;10675;47.976;7.824;2023-12-04T01:37:03;4.50;;;2.83;;
21032;SDS011;10675;47.976;7.824;2023-12-04T01:39:28;4.80;;;2.03;;
21032;SDS011;10675;47.976;7.824;2023-12-04T01:41:54;4.00;;;2.23;;
21032;SDS011;10675;47.976;7.824;2023-12-04T01:44:19;2.17;;;1.97;;
21032;SDS011;10675;47.976;7.824;2023-12-04T01:46:46;3.73;;;2.47;;
21032;SDS011;10675;47.976;7.824;2023-12-04T01:49:12;6.57;;;2.40;;
21032;SDS011;10675;47.976;7.824;2023-12-04T01:51:38;3.33;;;2.07;;
21032;SDS011;10675;47.976;7.824;2023-12-04T01:54:04;2.97;;;1.90;;
21032;SDS011;10675;47.976;7.824;2023-12-04T01:56:33;2.80;;;2.00;;
21032;SDS011;10675;47.976;7.824;2023-12-04T01:59:01;1.93;;;1.63;;
21032;SDS011;10675;47.976;7.824;2023-12-04T02:01:26;4.63;;;2.07;;
21032;SDS011;10675;47.976;7.824;2023-12-04T02:03:52;3.60;;;2.47;;
21032;SDS011;10675;47.976;7.824;2023-12-04T02:06:19;2.57;;;2.23;;
21032;SDS011;10675;47.976;7.824;2023-12-04T02:08:47;2.83;;;2.33;;
21032;SDS011;10675;47.976;7.824;2023-12-04T02:11:13;2.20;;;1.70;;
21032;SDS011;10675;47.976;7.824;2023-12-04T02:13:39;1.90;;;1.70;;
21032;SDS011;10675;47.976;7.824;2023-12-04T02:16:05;3.87;;;2.37;;
21032;SDS011;10675;47.976;7.824;2023-12-04T02:18:35;3.70;;;2.20;;
21032;SDS011;10675;47.976;7.824;2023-12-04T02:21:01;3.10;;;2.13;;
21032;SDS011;10675;47.976;7.824;2023-12-04T02:23:27;6.37;;;2.37;;
21032;SDS011;10675;47.976;7.824;2023-12-04T02:25:54;3.63;;;1.90;;
21032;SDS011;10675;47.976;7.824;2023-12-04T02:28:35;2.17;;;1.67;;
21032;SDS011;10675;47.976;7.824;2023-12-04T02:31:02;2.80;;;1.83;;
21032;SDS011;10675;47.976;7.824;2023-12-04T02:33:30;2.70;;;1.90;;
21032;SDS011;10675;47.976;7.824;2023-12-04T02:35:56;1.90;;;1.50;;
21032;SDS011;10675;47.976;7.824;2023-12-04T02:38:23;3.77;;;1.57;;
21032;SDS011;10675;47.976;7.824;2023-12-04T02:40:49;1.90;;;1.47;;
21032;SDS011;10675;47.976;7.824;2023-12-04T02:43:15;2.50;;;2.03;;
21032;SDS011;10675;47.976;7.824;2023-12-04T02:45:41;1.67;;;1.57;;
21032;SDS011;10675;47.976;7.824;2023-12-04T02:48:06;3.60;;;2.07;;
21032;SDS011;10675;47.976;7.824;2023-12-04T02:50:32;2.83;;;1.73;;
21032;SDS011;10675;47.976;7.824;2023-12-04T02:52:58;4.13;;;1.90;;
21032;SDS011;10675;47.976;7.824;2023-12-04T02:55:23;5.40;;;2.40;;
21032;SDS011;10675;47.976;7.824;2023-12-04T02:57:49;2.27;;;1.63;;
21032;SDS011;10675;47.976;7.824;2023-12-04T03:00:15;2.77;;;1.90;;
21032;SDS011;10675;47.976;7.824;2023-12-04T03:02:41;5.13;;;1.97;;
21032;SDS011;10675;47.976;7.824;2023-12-04T03:05:06;2.37;;;2.10;;
21032;SDS011;10675;47.976;7.824;2023-12-04T03:07:32;4.00;;;2.00;;
21032;SDS011;10675;47.976;7.824;2023-12-04T03:09:57;3.97;;;1.93;;
21032;SDS011;10675;47.976;7.824;2023-12-04T03:12:23;3.13;;;2.30;;
21032;SDS011;10675;47.976;7.824;2023-12-04T03:14:48;2.53;;;1.80;;
21032;SDS011;10675;47.976;7.824;2023-12-04T03:17:14;3.83;;;2.17;;
21032;SDS011;10675;47.976;7.824;2023-12-04T03:19:39;6.13;;;2.07;;
21032;SDS011;10675;47.976;7.824;2023-12-04T03:22:05;3.30;;;2.37;;
21032;SDS011;10675;47.976;7.824;2023-12-04T03:24:32;4.90;;;2.27;;
21032;SDS011;10675;47.976;7.824;2023-12-04T03:26:57;4.77;;;3.30;;
21032;SDS011;10675;47.976;7.824;2023-12-04T03:29:23;2.67;;;2.10;;
21032;SDS011;10675;47.976;7.824;2023-12-04T03:31:49;4.00;;;2.43;;
21032;SDS011;10675;47.976;7.824;2023-12-04T03:34:14;4.97;;;2.50;;
21032;SDS011;10675;47.976;7.824;2023-12-04T03:36:40;4.23;;;3.07;;
21032;SDS011;10675;47.976;7.824;2023-12-04T03:39:05;4.13;;;2.50;;
21032;SDS011;10675;47.976;7.824;2023-12-04T03:41:31;5.10;;;3.03;;
21032;SDS011;10675;47.976;7.824;2023-12-04T03:43:56;4.70;;;2.57;;
21032;SDS011;10675;47.976;7.824;2023-12-04T03:46:22;5.37;;;2.93;;
21032;SDS011;10675;47.976;7.824;2023-12-04T03:48:47;4.70;;;3.10;;
21032;SDS011;10675;47.976;7.824;2023-12-04T03:51:13;3.20;;;2.07;;
21032;SDS011;10675;47.976;7.824;2023-12-04T03:53:38;3.70;;;2.57;;
21032;SDS011;10675;47.976;7.824;2023-12-04T03:56:04;2.77;;;2.50;;
21032;SDS011;10675;47.976;7.824;2023-12-04T03:58:30;5.97;;;2.30;;
21032;SDS011;10675;47.976;7.824;2023-12-04T04:00:55;5.53;;;2.30;;
21032;SDS011;10675;47.976;7.824;2023-12-04T04:03:21;4.27;;;2.43;;
21032;SDS011;10675;47.976;7.824;2023-12-04T04:05:46;2.90;;;2.00;;
21032;SDS011;10675;47.976;7.824;2023-12-04T04:08:12;4.63;;;2.40;;
21032;SDS011;10675;47.976;7.824;2023-12-04T04:10:37;4.70;;;3.17;;
21032;SDS011;10675;47.976;7.824;2023-12-04T04:13:03;2.20;;;1.90;;
21032;SDS011;10675;47.976;7.824;2023-12-04T04:15:28;5.67;;;2.77;;
21032;SDS011;10675;47.976;7.824;2023-12-04T04:17:54;3.60;;;2.30;;
21032;SDS011;10675;47.976;7.824;2023-12-04T04:20:19;3.97;;;2.07;;
21032;SDS011;10675;47.976;7.824;2023-12-04T04:22:47;5.50;;;3.27;;
21032;SDS011;10675;47.976;7.824;2023-12-04T04:25:13;4.03;;;2.30;;
21032;SDS011;10675;47.976;7.824;2023-12-04T04:27:39;4.80;;;2.43;;
21032;SDS011;10675;47.976;7.824;2023-12-04T04:30:04;3.87;;;2.83;;
21032;SDS011;10675;47.976;7.824;2023-12-04T04:32:30;7.37;;;2.70;;
21032;SDS011;10675;47.976;7.824;2023-12-04T04:34:56;4.17;;;2.93;;
21032;SDS011;10675;47.976;7.824;2023-12-04T04:37:22;3.47;;;2.30;;
21032;SDS011;10675;47.976;7.824;2023-12-04T04:39:47;2.60;;;2.13;;
21032;SDS011;10675;47.976;7.824;2023-12-04T04:42:14;5.27;;;3.17;;
21032;SDS011;10675;47.976;7.824;2023-12-04T04:44:39;4.60;;;3.10;;
21032;SDS011;10675;47.976;7.824;2023-12-04T04:47:05;5.47;;;2.80;;
21032;SDS011;10675;47.976;7.824;2023-12-04T04:49:30;5.10;;;2.77;;
21032;SDS011;10675;47.976;7.824;2023-12-04T04:51:56;3.97;;;2.60;;
21032;SDS011;10675;47.976;7.824;2023-12-04T04:54:21;3.47;;;2.07;;
21032;SDS011;10675;47.976;7.824;2023-12-04T04:56:47;3.40;;;2.67;;
21032;SDS011;10675;47.976;7.824;2023-12-04T04:59:13;5.30;;;3.30;;
21032;SDS011;10675;47.976;7.824;2023-12-04T05:01:38;5.63;;;3.07;;
21032;SDS011;10675;47.976;7.824;2023-12-04T05:04:04;3.23;;;2.40;;
21032;SDS011;10675;47.976;7.824;2023-12-04T05:06:29;4.17;;;2.60;;
21032;SDS011;10675;47.976;7.824;2023-12-04T05:08:55;7.40;;;3.70;;
21032;SDS011;10675;47.976;7.824;2023-12-04T05:11:21;9.00;;;4.93;;
21032;SDS011;10675;47.976;7.824;2023-12-04T05:13:46;9.60;;;4.33;;
21032;SDS011;10675;47.976;7.824;2023-12-04T05:16:12;7.00;;;4.27;;
21032;SDS011;10675;47.976;7.824;2023-12-04T05:18:38;7.07;;;4.53;;
21032;SDS011;10675;47.976;7.824;2023-12-04T05:21:08;8.77;;;4.73;;
21032;SDS011;10675;47.976;7.824;2023-12-04T05:23:34;7.63;;;4.80;;
21032;SDS011;10675;47.976;7.824;2023-12-04T05:26:00;9.50;;;5.07;;
21032;SDS011;10675;47.976;7.824;2023-12-04T05:28:25;9.07;;;4.40;;
21032;SDS011;10675;47.976;7.824;2023-12-04T05:30:51;7.97;;;5.43;;
21032;SDS011;10675;47.976;7.824;2023-12-04T05:33:16;6.37;;;4.23;;
21032;SDS011;10675;47.976;7.824;2023-12-04T05:35:42;5.60;;;3.73;;
21032;SDS011;10675;47.976;7.824;2023-12-04T05:38:07;8.27;;;4.37;;
21032;SDS011;10675;47.976;7.824;2023-12-04T05:40:33;8.13;;;4.57;;
21032;SDS011;10675;47.976;7.824;2023-12-04T05:42:59;10.70;;;5.23;;
21032;SDS011;10675;47.976;7.824;2023-12-04T05:45:24;10.77;;;5.27;;
21032;SDS011;10675;47.976;7.824;2023-12-04T05:47:50;11.27;;;6.10;;
21032;SDS011;10675;47.976;7.824;2023-12-04T05:50:15;9.00;;;4.90;;
21032;SDS011;10675;47.976;7.824;2023-12-04T05:52:41;14.07;;;5.33;;
21032;SDS011;10675;47.976;7.824;2023-12-04T05:55:06;12.77;;;6.53;;
21032;SDS011;10675;47.976;7.824;2023-12-04T05:57:32;15.40;;;6.90;;
21032;SDS011;10675;47.976;7.824;2023-12-04T05:59:58;14.63;;;6.10;;
21032;SDS011;10675;47.976;7.824;2023-12-04T06:02:24;18.60;;;5.90;;
21032;SDS011;10675;47.976;7.824;2023-12-04T06:04:50;10.10;;;4.80;;
21032;SDS011;10675;47.976;7.824;2023-12-04T06:07:15;8.30;;;4.90;;
21032;SDS011;10675;47.976;7.824;2023-12-04T06:09:41;10.03;;;5.33;;
21032;SDS011;10675;47.976;7.824;2023-12-04T06:12:07;10.13;;;5.90;;
21032;SDS011;10675;47.976;7.824;2023-12-04T06:14:34;10.17;;;5.70;;
21032;SDS011;10675;47.976;7.824;2023-12-04T06:17:02;9.93;;;5.37;;
21032;SDS011;10675;47.976;7.824;2023-12-04T06:19:28;8.33;;;5.60;;
21032;SDS011;10675;47.976;7.824;2023-12-04T06:21:56;10.67;;;5.77;;
21032;SDS011;10675;47.976;7.824;2023-12-04T06:24:22;9.47;;;5.73;;
21032;SDS011;10675;47.976;7.824;2023-12-04T06:26:49;11.17;;;6.10;;
21032;SDS011;10675;47.976;7.824;2023-12-04T06:29:16;9.57;;;5.47;;
21032;SDS011;10675;47.976;7.824;2023-12-04T06:31:42;7.33;;;4.93;;
21032;SDS011;10675;47.976;7.824;2023-12-04T06:34:07;7.53;;;5.23;;
21032;SDS011;10675;47.976;7.824;2023-12-04T06:36:35;7.93;;;5.23;;
21032;SDS011;10675;47.976;7.824;2023-12-04T06:39:03;8.03;;;5.17;;
21032;SDS011;10675;47.976;7.824;2023-12-04T06:41:34;13.20;;;5.87;;
21032;SDS011;10675;47.976;7.824;2023-12-04T06:44:00;11.37;;;5.73;;
21032;SDS011;10675;47.976;7.824;2023-12-04T06:46:26;11.80;;;6.83;;
21032;SDS011;10675;47.976;7.824;2023-12-04T06:48:57;9.53;;;5.37;;
21032;SDS011;10675;47.976;7.824;2023-12-04T06:51:24;10.97;;;6.20;;
21032;SDS011;10675;47.976;7.824;2023-12-04T06:53:49;14.73;;;5.83;;
21032;SDS011;10675;47.976;7.824;2023-12-04T06:56:15;9.20;;;6.00;;
21032;SDS011;10675;47.976;7.824;2023-12-04T06:58:41;12.67;;;6.90;;
21032;SDS011;10675;47.976;7.824;2023-12-04T07:01:06;10.03;;;5.63;;
21032;SDS011;10675;47.976;7.824;2023-12-04T07:03:32;10.03;;;5.30;;
21032;SDS011;10675;47.976;7.824;2023-12-04T07:05:57;8.33;;;5.23;;
21032;SDS011;10675;47.976;7.824;2023-12-04T07:08:23;9.97;;;5.33;;
21032;SDS011;10675;47.976;7.824;2023-12-04T07:10:49;12.27;;;6.20;;
21032;SDS011;10675;47.976;7.824;2023-12-04T07:13:14;10.77;;;5.53;;
21032;SDS011;10675;47.976;7.824;2023-12-04T07:15:41;12.37;;;6.53;;
21032;SDS011;10675;47.976;7.824;2023-12-04T07:18:06;12.77;;;5.87;;
21032;SDS011;10675;47.976;7.824;2023-12-04T07:20:32;10.73;;;5.77;;
21032;SDS011;10675;47.976;7.824;2023-12-04T07:22:57;10.23;;;5.67;;
21032;SDS011;10675;47.976;7.824;2023-12-04T07:25:23;12.67;;;5.57;;
21032;SDS011;10675;47.976;7.824;2023-12-04T07:27:49;9.40;;;4.80;;
21032;SDS011;10675;47.976;7.824;2023-12-04T07:30:14;8.87;;;5.00;;
21032;SDS011;10675;47.976;7.824;2023-12-04T07:32:40;8.03;;;5.00;;
21032;SDS011;10675;47.976;7.824;2023-12-04T07:35:06;9.97;;;5.53;;
21032;SDS011;10675;47.976;7.824;2023-12-04T07:37:32;13.87;;;5.40;;
21032;SDS011;10675;47.976;7.824;2023-12-04T07:39:58;7.97;;;5.37;;
21032;SDS011;10675;47.976;7.824;2023-12-04T07:42:24;11.63;;;5.23;;
21032;SDS011;10675;47.976;7.824;2023-12-04T07:44:49;9.70;;;5.27;;
21032;SDS011;10675;47.976;7.824;2023-12-04T07:47:15;11.10;;;5.83;;
21032;SDS011;10675;47.976;7.824;2023-12-04T07:49:41;14.93;;;5.87;;
21032;SDS011;10675;47.976;7.824;2023-12-04T07:52:07;8.73;;;4.80;;
21032;SDS011;10675;47.976;7.824;2023-12-04T07:54:33;11.33;;;6.17;;
21032;SDS011;10675;47.976;7.824;2023-12-04T07:56:59;9.87;;;5.87;;
21032;SDS011;10675;47.976;7.824;2023-12-04T07:59:24;10.83;;;6.20;;
21032;SDS011;10675;47.976;7.824;2023-12-04T08:01:51;12.50;;;6.40;;
21032;SDS011;10675;47.976;7.824;2023-12-04T08:04:16;12.50;;;6.23;;
21032;SDS011;10675;47.976;7.824;2023-12-04T08:06:42;9.00;;;6.03;;
21032;SDS011;10675;47.976;7.824;2023-12-04T08:09:07;13.80;;;7.17;;
21032;SDS011;10675;47.976;7.824;2023-12-04T08:11:35;9.17;;;6.13;;
21032;SDS011;10675;47.976;7.824;2023-12-04T08:14:00;11.00;;;6.17;;
21032;SDS011;10675;47.976;7.824;2023-12-04T08:16:26;11.83;;;6.60;;
21032;SDS011;10675;47.976;7.824;2023-12-04T08:18:53;13.70;;;7.60;;
21032;SDS011;10675;47.976;7.824;2023-12-04T08:21:19;16.07;;;7.60;;
21032;SDS011;10675;47.976;7.824;2023-12-04T08:23:45;11.77;;;6.33;;
21032;SDS011;10675;47.976;7.824;2023-12-04T08:26:10;10.70;;;6.63;;
21032;SDS011;10675;47.976;7.824;2023-12-04T08:28:36;11.50;;;6.80;;
21032;SDS011;10675;47.976;7.824;2023-12-04T08:31:07;12.60;;;5.80;;
21032;SDS011;10675;47.976;7.824;2023-12-04T08:33:33;10.53;;;6.07;;
21032;SDS011;10675;47.976;7.824;2023-12-04T08:35:59;12.77;;;6.40;;
21032;SDS011;10675;47.976;7.824;2023-12-04T08:38:25;12.37;;;5.93;;
21032;SDS011;10675;47.976;7.824;2023-12-04T08:40:51;11.57;;;5.87;;
21032;SDS011;10675;47.976;7.824;2023-12-04T08:43:16;10.27;;;5.47;;
21032;SDS011;10675;47.976;7.824;2023-12-04T08:45:43;10.37;;;6.13;;
21032;SDS011;10675;47.976;7.824;2023-12-04T08:48:10;8.23;;;5.97;;
21032;SDS011;10675;47.976;7.824;2023-12-04T08:50:35;9.60;;;5.23;;
21032;SDS011;10675;47.976;7.824;2023-12-04T08:53:02;12.43;;;5.77;;
21032;SDS011;10675;47.976;7.824;2023-12-04T08:55:29;8.53;;;4.83;;
21032;SDS011;10675;47.976;7.824;2023-12-04T08:57:54;7.93;;;5.03;;
21032;SDS011;10675;47.976;7.824;2023-12-04T09:00:20;8.90;;;5.87;;
21032;SDS011;10675;47.976;7.824;2023-12-04T09:02:47;8.47;;;4.90;;
21032;SDS011;10675;47.976;7.824;2023-12-04T09:05:13;10.33;;;5.47;;
21032;SDS011;10675;47.976;7.824;2023-12-04T09:07:38;8.60;;;5.40;;
21032;SDS011;10675;47.976;7.824;2023-12-04T09:10:04;8.60;;;5.57;;
21032;SDS011;10675;47.976;7.824;2023-12-04T09:12:30;10.77;;;5.83;;
21032;SDS011;10675;47.976;7.824;2023-12-04T09:14:56;9.87;;;5.80;;
21032;SDS011;10675;47.976;7.824;2023-12-04T09:17:21;10.13;;;5.57;;
21032;SDS011;10675;47.976;7.824;2023-12-04T09:19:47;10.37;;;5.03;;
21032;SDS011;10675;47.976;7.824;2023-12-04T09:22:12;13.20;;;6.63;;
21032;SDS011;10675;47.976;7.824;2023-12-04T09:24:38;11.63;;;6.37;;
21032;SDS011;10675;47.976;7.824;2023-12-04T09:27:03;12.07;;;6.80;;
21032;SDS011;10675;47.976;7.824;2023-12-04T09:29:31;11.73;;;7.07;;
21032;SDS011;10675;47.976;7.824;2023-12-04T09:31:57;12.87;;;7.20;;
21032;SDS011;10675;47.976;7.824;2023-12-04T09:34:23;14.27;;;7.43;;
21032;SDS011;10675;47.976;7.824;2023-12-04T09:36:48;17.47;;;7.33;;
21032;SDS011;10675;47.976;7.824;2023-12-04T09:39:14;9.60;;;6.43;;
21032;SDS011;10675;47.976;7.824;2023-12-04T09:41:40;11.67;;;7.27;;
21032;SDS011;10675;47.976;7.824;2023-12-04T09:44:08;16.53;;;7.53;;
21032;SDS011;10675;47.976;7.824;2023-12-04T09:46:34;17.03;;;8.57;;
21032;SDS011;10675;47.976;7.824;2023-12-04T09:49:00;17.67;;;7.27;;
21032;SDS011;10675;47.976;7.824;2023-12-04T09:51:27;11.30;;;6.97;;
21032;SDS011;10675;47.976;7.824;2023-12-04T09:53:53;12.30;;;7.63;;
21032;SDS011;10675;47.976;7.824;2023-12-04T09:56:20;13.93;;;7.33;;
21032;SDS011;10675;47.976;7.824;2023-12-04T09:58:47;14.97;;;7.83;;
21032;SDS011;10675;47.976;7.824;2023-12-04T10:01:17;14.47;;;6.07;;
21032;SDS011;10675;47.976;7.824;2023-12-04T10:03:43;15.50;;;7.13;;
21032;SDS011;10675;47.976;7.824;2023-12-04T10:06:08;17.33;;;8.33;;
21032;SDS011;10675;47.976;7.824;2023-12-04T10:08:34;12.97;;;7.33;;
21032;SDS011;10675;47.976;7.824;2023-12-04T10:11:00;11.07;;;6.70;;
21032;SDS011;10675;47.976;7.824;2023-12-04T10:13:26;16.53;;;7.73;;
21032;SDS011;10675;47.976;7.824;2023-12-04T10:15:52;16.23;;;8.60;;
21032;SDS011;10675;47.976;7.824;2023-12-04T10:18:25;14.03;;;7.40;;
21032;SDS011;10675;47.976;7.824;2023-12-04T10:20:56;16.03;;;8.87;;
21032;SDS011;10675;47.976;7.824;2023-12-04T10:23:22;16.67;;;8.67;;
21032;SDS011;10675;47.976;7.824;2023-12-04T10:26:00;18.30;;;8.30;;
21032;SDS011;10675;47.976;7.824;2023-12-04T10:28:26;13.87;;;7.57;;
21032;SDS011;10675;47.976;7.824;2023-12-04T10:30:52;15.03;;;8.57;;
21032;SDS011;10675;47.976;7.824;2023-12-04T10:33:18;14.53;;;8.40;;
21032;SDS011;10675;47.976;7.824;2023-12-04T10:35:44;12.57;;;7.77;;
21032;SDS011;10675;47.976;7.824;2023-12-04T10:38:12;17.73;;;8.53;;
21032;SDS011;10675;47.976;7.824;2023-12-04T10:40:39;15.53;;;8.27;;
21032;SDS011;10675;47.976;7.824;2023-12-04T10:43:38;13.83;;;8.77;;
21032;SDS011;10675;47.976;7.824;2023-12-04T10:45:56;16.53;;;7.53;;
21032;SDS011;10675;47.976;7.824;2023-12-04T10:48:22;17.67;;;8.33;;
21032;SDS011;10675;47.976;7.824;2023-12-04T10:50:48;16.17;;;8.53;;
21032;SDS011;10675;47.976;7.824;2023-12-04T10:53:14;15.70;;;7.50;;
21032;SDS011;10675;47.976;7.824;2023-12-04T10:55:41;17.97;;;9.03;;
21032;SDS011;10675;47.976;7.824;2023-12-04T10:58:09;15.83;;;8.17;;
21032;SDS011;10675;47.976;7.824;2023-12-04T11:00:41;15.07;;;7.67;;
21032;SDS011;10675;47.976;7.824;2023-12-04T11:03:21;15.80;;;7.50;;
21032;SDS011;10675;47.976;7.824;2023-12-04T11:05:58;13.00;;;7.37;;
21032;SDS011;10675;47.976;7.824;2023-12-04T11:08:26;18.20;;;8.07;;
21032;SDS011;10675;47.976;7.824;2023-12-04T11:10:56;9.23;;;6.90;;
21032;SDS011;10675;47.976;7.824;2023-12-04T11:13:27;13.23;;;6.57;;
21032;SDS011;10675;47.976;7.824;2023-12-04T11:15:56;14.83;;;7.47;;
21032;SDS011;10675;47.976;7.824;2023-12-04T11:18:43;12.90;;;7.47;;
21032;SDS011;10675;47.976;7.824;2023-12-04T11:21:13;17.47;;;9.00;;
21032;SDS011;10675;47.976;7.824;2023-12-04T11:23:40;16.73;;;8.23;;
21032;SDS011;10675;47.976;7.824;2023-12-04T11:26:07;15.57;;;8.23;;
21032;SDS011;10675;47.976;7.824;2023-12-04T11:28:33;13.63;;;8.17;;
21032;SDS011;10675;47.976;7.824;2023-12-04T11:31:01;19.97;;;9.10;;
21032;SDS011;10675;47.976;7.824;2023-12-04T11:33:27;17.47;;;8.33;;
21032;SDS011;10675;47.976;7.824;2023-12-04T11:35:52;13.40;;;8.57;;
21032;SDS011;10675;47.976;7.824;2023-12-04T11:38:34;17.30;;;9.27;;
21032;SDS011;10675;47.976;7.824;2023-12-04T11:41:11;19.17;;;8.57;;
21032;SDS011;10675;47.976;7.824;2023-12-04T11:43:55;14.87;;;7.73;;
21032;SDS011;10675;47.976;7.824;2023-12-04T11:46:22;17.47;;;9.13;;
21032;SDS011;10675;47.976;7.824;2023-12-04T11:48:55;12.97;;;8.00;;
21032;SDS011;10675;47.976;7.824;2023-12-04T11:54:08;17.47;;;8.57;;
21032;SDS011;10675;47.976;7.824;2023-12-04T11:56:35;16.97;;;8.47;;
21032;SDS011;10675;47.976;7.824;2023-12-04T11:59:02;17.30;;;9.30;;
21032;SDS011;10675;47.976;7.824;2023-12-04T12:01:37;17.60;;;8.50;;
21032;SDS011;10675;47.976;7.824;2023-12-04T12:04:04;17.47;;;9.17;;
21032;SDS011;10675;47.976;7.824;2023-12-04T12:06:30;16.10;;;8.77;;
21032;SDS011;10675;47.976;7.824;2023-12-04T12:08:56;17.93;;;9.50;;
21032;SDS011;10675;47.976;7.824;2023-12-04T12:11:25;20.27;;;10.23;;
21032;SDS011;10675;47.976;7.824;2023-12-04T12:13:54;21.53;;;10.60;;
21032;SDS011;10675;47.976;7.824;2023-12-04T12:16:19;20.53;;;10.27;;
21032;SDS011;10675;47.976;7.824;2023-12-04T12:18:46;20.33;;;10.33;;
21032;SDS011;10675;47.976;7.824;2023-12-04T12:21:11;21.73;;;10.37;;
21032;SDS011;10675;47.976;7.824;2023-12-04T12:23:37;21.67;;;11.27;;
21032;SDS011;10675;47.976;7.824;2023-12-04T12:26:03;20.40;;;11.77;;
21032;SDS011;10675;47.976;7.824;2023-12-04T12:28:29;18.17;;;11.10;;
21032;SDS011;10675;47.976;7.824;2023-12-04T12:30:55;20.87;;;10.13;;
21032;SDS011;10675;47.976;7.824;2023-12-04T12:33:21;19.73;;;10.37;;
21032;SDS011;10675;47.976;7.824;2023-12-04T12:35:48;28.53;;;15.93;;
21032;SDS011;10675;47.976;7.824;2023-12-04T12:38:14;21.03;;;11.57;;
21032;SDS011;10675;47.976;7.824;2023-12-04T12:40:39;22.43;;;13.33;;
21032;SDS011;10675;47.976;7.824;2023-12-04T12:43:05;21.13;;;13.43;;
21032;SDS011;10675;47.976;7.824;2023-12-04T12:45:44;25.13;;;13.60;;
21032;SDS011;10675;47.976;7.824;2023-12-04T12:48:16;22.10;;;12.87;;
21032;SDS011;10675;47.976;7.824;2023-12-04T12:50:50;20.90;;;12.73;;
21032;SDS011;10675;47.976;7.824;2023-12-04T12:53:17;27.37;;;12.07;;
21032;SDS011;10675;47.976;7.824;2023-12-04T12:55:43;26.03;;;12.77;;
21032;SDS011;10675;47.976;7.824;2023-12-04T12:58:12;20.77;;;13.27;;
21032;SDS011;10675;47.976;7.824;2023-12-04T13:00:39;22.20;;;13.23;;
21032;SDS011;10675;47.976;7.824;2023-12-04T13:03:06;25.17;;;14.23;;
21032;SDS011;10675;47.976;7.824;2023-12-04T13:05:39;21.93;;;12.40;;
21032;SDS011;10675;47.976;7.824;2023-12-04T13:08:05;26.00;;;13.33;;
21032;SDS011;10675;47.976;7.824;2023-12-04T13:10:30;23.63;;;11.97;;
21032;SDS011;10675;47.976;7.824;2023-12-04T13:12:56;20.47;;;12.37;;
21032;SDS011;10675;47.976;7.824;2023-12-04T13:15:22;20.43;;;11.63;;
21032;SDS011;10675;47.976;7.824;2023-12-04T13:17:48;21.97;;;11.50;;
21032;SDS011;10675;47.976;7.824;2023-12-04T13:20:13;24.30;;;12.97;;
21032;SDS011;10675;47.976;7.824;2023-12-04T13:22:41;20.50;;;11.97;;
21032;SDS011;10675;47.976;7.824;2023-12-04T13:25:06;19.30;;;10.73;;
21032;SDS011;10675;47.976;7.824;2023-12-04T13:27:34;22.40;;;11.73;;
21032;SDS011;10675;47.976;7.824;2023-12-04T13:30:03;22.53;;;11.83;;
21032;SDS011;10675;47.976;7.824;2023-12-04T13:32:33;21.60;;;10.60;;
21032;SDS011;10675;47.976;7.824;2023-12-04T13:35:00;22.00;;;9.97;;
21032;SDS011;10675;47.976;7.824;2023-12-04T13:37:26;18.53;;;10.87;;
21032;SDS011;10675;47.976;7.824;2023-12-04T13:39:53;21.20;;;10.57;;
21032;SDS011;10675;47.976;7.824;2023-12-04T13:42:22;15.33;;;9.63;;
21032;SDS011;10675;47.976;7.824;2023-12-04T13:45:07;17.73;;;10.33;;
21032;SDS011;10675;47.976;7.824;2023-12-04T13:47:34;22.23;;;9.87;;
21032;SDS011;10675;47.976;7.824;2023-12-04T13:50:00;23.07;;;10.13;;
21032;SDS011;10675;47.976;7.824;2023-12-04T13:52:26;19.83;;;9.93;;
21032;SDS011;10675;47.976;7.824;2023-12-04T13:54:54;17.40;;;10.10;;
21032;SDS011;10675;47.976;7.824;2023-12-04T13:57:22;21.37;;;10.87;;
21032;SDS011;10675;47.976;7.824;2023-12-04T14:00:08;18.73;;;10.50;;
21032;SDS011;10675;47.976;7.824;2023-12-04T14:02:34;20.13;;;10.90;;
21032;SDS011;10675;47.976;7.824;2023-12-04T14:05:02;15.57;;;10.50;;
21032;SDS011;10675;47.976;7.824;2023-12-04T14:07:27;16.67;;;10.07;;
21032;SDS011;10675;47.976;7.824;2023-12-04T14:09:53;19.43;;;10.57;;
21032;SDS011;10675;47.976;7.824;2023-12-04T14:12:18;22.30;;;10.73;;
21032;SDS011;10675;47.976;7.824;2023-12-04T14:14:44;17.80;;;9.77;;
21032;SDS011;10675;47.976;7.824;2023-12-04T14:17:09;16.60;;;9.77;;
21032;SDS011;10675;47.976;7.824;2023-12-04T14:19:36;16.60;;;10.57;;
21032;SDS011;10675;47.976;7.824;2023-12-04T14:22:04;13.83;;;7.47;;
21032;SDS011;10675;47.976;7.824;2023-12-04T14:24:30;14.13;;;7.87;;
21032;SDS011;10675;47.976;7.824;2023-12-04T14:26:55;13.77;;;6.70;;
21032;SDS011;10675;47.976;7.824;2023-12-04T14:29:21;13.63;;;7.57;;
21032;SDS011;10675;47.976;7.824;2023-12-04T14:31:46;9.80;;;5.57;;
21032;SDS011;10675;47.976;7.824;2023-12-04T14:34:12;4.73;;;2.93;;
21032;SDS011;10675;47.976;7.824;2023-12-04T14:36:38;9.37;;;6.27;;
21032;SDS011;10675;47.976;7.824;2023-12-04T14:39:04;11.23;;;6.60;;